createdAt,value
2017-07-04T00:00:13.529Z,1001.96
2017-07-04T00:01:23.873Z,1001.94
2017-07-04T00:02:33.943Z,1001.97
2017-07-04T00:03:44.298Z,1001.98
2017-07-04T00:04:54.320Z,1001.94
2017-07-04T00:06:04.655Z,1001.94
2017-07-04T00:07:15.002Z,1001.96
2017-07-04T00:08:25.354Z,1001.96
2017-07-04T00:09:35.386Z,1001.95
2017-07-04T00:10:45.737Z,1001.95
2017-07-04T00:11:56.173Z,1001.92
2017-07-04T00:13:06.533Z,1001.93
2017-07-04T00:14:16.872Z,1001.89
2017-07-04T00:15:27.229Z,1001.93
2017-07-04T00:16:37.250Z,1001.87
2017-07-04T00:17:47.279Z,1001.89
2017-07-04T00:18:57.606Z,1001.88
2017-07-04T00:20:08.012Z,1001.89
2017-07-04T00:21:18.395Z,1001.88
2017-07-04T00:22:28.411Z,1001.89
2017-07-04T00:23:38.126Z,1001.87
2017-07-04T00:24:48.471Z,1001.87
2017-07-04T00:25:58.830Z,1001.86
2017-07-04T00:27:09.191Z,1001.85
2017-07-04T00:28:19.536Z,1001.9
2017-07-04T00:29:29.893Z,1001.9
2017-07-04T00:30:40.233Z,1001.89
2017-07-04T00:31:50.594Z,1001.89
2017-07-04T00:33:00.947Z,1001.92
2017-07-04T00:34:11.295Z,1001.87
2017-07-04T00:35:21.304Z,1001.87
2017-07-04T00:36:31.652Z,1001.88
2017-07-04T00:37:41.413Z,1001.88
2017-07-04T00:38:51.122Z,1001.91
2017-07-04T00:40:01.470Z,1001.88
2017-07-04T00:41:11.808Z,1001.86
2017-07-04T00:42:21.834Z,1001.88
2017-07-04T00:43:32.170Z,1001.86
2017-07-04T00:44:42.505Z,1001.87
2017-07-04T00:45:52.549Z,1001.87
2017-07-04T00:47:02.903Z,1001.91
2017-07-04T00:48:13.254Z,1001.89
2017-07-04T00:49:23.669Z,1001.88
2017-07-04T00:50:33.692Z,1001.88
2017-07-04T00:51:43.725Z,1001.89
2017-07-04T00:52:54.066Z,1001.88
2017-07-04T00:54:04.418Z,1001.89
2017-07-04T00:55:14.751Z,1001.86
2017-07-04T00:56:25.146Z,1001.87
2017-07-04T00:57:35.494Z,1001.87
2017-07-04T00:58:45.517Z,1001.82
2017-07-04T00:59:55.230Z,1001.83
2017-07-04T01:01:05.630Z,1001.81
2017-07-04T01:02:15.970Z,1001.78
2017-07-04T01:03:26.331Z,1001.78
2017-07-04T01:04:36.674Z,1001.74
2017-07-04T01:05:47.027Z,1001.76
2017-07-04T01:06:57.087Z,1001.75
2017-07-04T01:08:07.104Z,1001.79
2017-07-04T01:09:16.827Z,1001.79
2017-07-04T01:10:27.168Z,1001.82
2017-07-04T01:11:37.529Z,1001.79
2017-07-04T01:12:47.616Z,1001.79
2017-07-04T01:13:57.964Z,1001.85
2017-07-04T01:15:07.981Z,1001.84
2017-07-04T01:16:18.012Z,1001.87
2017-07-04T01:17:28.420Z,1001.86
2017-07-04T01:18:38.125Z,1001.89
2017-07-04T01:19:48.161Z,1001.85
2017-07-04T01:20:58.199Z,1001.84
2017-07-04T01:22:08.231Z,1001.87
2017-07-04T01:23:18.261Z,1001.84
2017-07-04T01:24:28.669Z,1001.84
2017-07-04T01:25:39.012Z,1001.87
2017-07-04T01:26:49.038Z,1001.83
2017-07-04T01:27:59.063Z,1001.82
2017-07-04T01:29:09.105Z,1001.79
2017-07-04T01:30:19.443Z,1001.84
2017-07-04T01:31:29.782Z,1001.81
2017-07-04T01:32:40.197Z,1001.82
2017-07-04T01:33:50.543Z,1001.8
2017-07-04T01:35:00.889Z,1001.83
2017-07-04T01:36:11.291Z,1001.87
2017-07-04T01:37:21.628Z,1001.84
2017-07-04T01:38:31.985Z,1001.86
2017-07-04T01:39:42.332Z,1001.83
2017-07-04T01:40:52.358Z,1001.89
2017-07-04T01:42:02.700Z,1001.87
2017-07-04T01:43:13.044Z,1001.85
2017-07-04T01:44:23.213Z,1001.86
2017-07-04T01:45:33.557Z,1001.83
2017-07-04T01:46:43.888Z,1001.85
2017-07-04T01:47:53.958Z,1001.83
2017-07-04T01:49:04.310Z,1001.82
2017-07-04T01:50:14.653Z,1001.78
2017-07-04T01:51:24.401Z,1001.79
2017-07-04T01:52:34.737Z,1001.79
2017-07-04T01:53:45.098Z,1001.79
2017-07-04T01:54:55.455Z,1001.8
2017-07-04T01:56:05.495Z,1001.8
2017-07-04T01:57:15.519Z,1001.77
2017-07-04T01:58:25.555Z,1001.79
2017-07-04T01:59:35.940Z,1001.76
2017-07-04T02:00:46.282Z,1001.77
2017-07-04T02:01:56.626Z,1001.8
2017-07-04T02:03:06.664Z,1001.76
2017-07-04T02:04:17.014Z,1001.83
2017-07-04T02:05:27.357Z,1001.81
2017-07-04T02:06:37.697Z,1001.8
2017-07-04T02:07:47.728Z,1001.8
2017-07-04T02:08:58.090Z,1001.82
2017-07-04T02:10:08.442Z,1001.78
2017-07-04T02:11:18.791Z,1001.81
2017-07-04T02:12:29.121Z,1001.79
2017-07-04T02:13:39.171Z,1001.78
2017-07-04T02:14:49.529Z,1001.79
2017-07-04T02:15:59.871Z,1001.79
2017-07-04T02:17:10.262Z,1001.76
2017-07-04T02:18:20.286Z,1001.75
2017-07-04T02:19:30.322Z,1001.77
2017-07-04T02:20:40.670Z,1001.78
2017-07-04T02:21:50.700Z,1001.82
2017-07-04T02:23:01.083Z,1001.77
2017-07-04T02:24:11.418Z,1001.78
2017-07-04T02:25:21.765Z,1001.81
2017-07-04T02:26:31.789Z,1001.82
2017-07-04T02:27:41.825Z,1001.85
2017-07-04T02:28:51.545Z,1001.84
2017-07-04T02:30:01.894Z,1001.87
2017-07-04T02:31:12.265Z,1001.86
2017-07-04T02:32:22.615Z,1001.83
2017-07-04T02:33:32.965Z,1001.82
2017-07-04T02:34:43.356Z,1001.81
2017-07-04T02:35:53.395Z,1001.82
2017-07-04T02:37:03.725Z,1001.77
2017-07-04T02:38:13.429Z,1001.77
2017-07-04T02:39:23.467Z,1001.77
2017-07-04T02:40:33.498Z,1001.77
2017-07-04T02:41:43.821Z,1001.76
2017-07-04T02:42:53.525Z,1001.8
2017-07-04T02:44:03.943Z,1001.79
2017-07-04T02:45:14.290Z,1001.78
2017-07-04T02:46:24.046Z,1001.75
2017-07-04T02:47:33.749Z,1001.77
2017-07-04T02:48:44.077Z,1001.77
2017-07-04T02:49:54.430Z,1001.77
2017-07-04T02:51:04.459Z,1001.77
2017-07-04T02:52:14.842Z,1001.78
2017-07-04T02:53:25.178Z,1001.78
2017-07-04T02:54:35.509Z,1001.76
2017-07-04T02:55:45.851Z,1001.8
2017-07-04T02:56:55.871Z,1001.79
2017-07-04T02:58:06.216Z,1001.8
2017-07-04T02:59:16.556Z,1001.78
2017-07-04T03:00:26.928Z,1001.75
2017-07-04T03:01:37.258Z,1001.76
2017-07-04T03:33:03.293Z,1001.81
2017-07-04T03:34:13.316Z,1001.84
2017-07-04T03:35:23.711Z,1001.86
2017-07-04T03:36:33.418Z,1001.84
2017-07-04T03:37:43.431Z,1001.83
2017-07-04T03:38:53.771Z,1001.84
2017-07-04T03:40:04.361Z,1001.85
2017-07-04T03:41:14.117Z,1001.88
2017-07-04T03:42:24.466Z,1001.87
2017-07-04T03:43:34.819Z,1001.88
2017-07-04T03:44:44.518Z,1001.86
2017-07-04T03:45:54.877Z,1001.85
2017-07-04T03:47:05.264Z,1001.84
2017-07-04T03:48:15.287Z,1001.86
2017-07-04T03:49:25.318Z,1001.84
2017-07-04T03:50:35.661Z,1001.85
2017-07-04T03:51:46.015Z,1001.81
2017-07-04T03:52:56.344Z,1001.84
2017-07-04T03:54:06.080Z,1001.84
2017-07-04T03:55:16.102Z,1001.81
2017-07-04T03:56:26.427Z,1001.83
2017-07-04T03:57:36.774Z,1001.83
2017-07-04T03:58:46.541Z,1001.78
2017-07-04T03:59:56.893Z,1001.77
2017-07-04T04:01:06.917Z,1001.78
2017-07-04T04:02:17.261Z,1001.77
2017-07-04T04:03:27.288Z,1001.8
2017-07-04T04:04:37.375Z,1001.82
2017-07-04T04:05:47.711Z,1001.83
2017-07-04T04:06:58.051Z,1001.82
2017-07-04T04:08:08.089Z,1001.8
2017-07-04T04:09:18.118Z,1001.8
2017-07-04T04:10:28.150Z,1001.82
2017-07-04T04:11:38.492Z,1001.83
2017-07-04T04:12:48.834Z,1001.85
2017-07-04T04:13:58.853Z,1001.82
2017-07-04T04:15:08.588Z,1001.83
2017-07-04T04:16:19.003Z,1001.79
2017-07-04T04:17:29.341Z,1001.76
2017-07-04T04:18:39.696Z,1001.79
2017-07-04T04:19:49.729Z,1001.81
2017-07-04T04:21:00.080Z,1001.79
2017-07-04T04:22:10.460Z,1001.84
2017-07-04T04:23:20.501Z,1001.97
2017-07-04T04:24:30.847Z,1002.41
2017-07-04T04:25:40.568Z,1002.5
2017-07-04T04:26:50.909Z,1002.59
2017-07-04T04:28:01.317Z,1002.76
2017-07-04T04:29:11.349Z,1002.76
2017-07-04T04:30:21.401Z,1002.79
2017-07-04T04:31:31.437Z,1002.74
2017-07-04T04:32:41.775Z,1002.74
2017-07-04T04:33:51.540Z,1002.82
2017-07-04T04:35:01.884Z,1002.83
2017-07-04T04:36:11.907Z,1002.73
2017-07-04T04:37:22.255Z,1002.69
2017-07-04T04:38:31.973Z,1002.7
2017-07-04T04:39:42.325Z,1002.68
2017-07-04T04:40:52.690Z,1002.59
2017-07-04T04:42:03.042Z,1002.53
2017-07-04T04:43:13.381Z,1002.54
2017-07-04T04:44:23.730Z,1002.52
2017-07-04T04:45:33.768Z,1002.46
2017-07-04T04:46:44.124Z,1002.43
2017-07-04T04:47:53.835Z,1002.39
2017-07-04T04:49:04.171Z,1002.37
2017-07-04T04:50:14.204Z,1002.31
2017-07-04T04:51:24.551Z,1002.28
2017-07-04T04:52:34.915Z,1002.29
2017-07-04T04:53:44.958Z,1002.27
2017-07-04T04:54:54.988Z,1002.24
2017-07-04T04:56:05.337Z,1002.28
2017-07-04T04:57:15.369Z,1002.33
2017-07-04T04:58:25.718Z,1002.33
2017-07-04T04:59:36.085Z,1002.35
2017-07-04T05:00:46.113Z,1002.35
2017-07-04T05:01:56.459Z,1002.38
2017-07-04T05:03:06.543Z,1002.41
2017-07-04T05:04:15.946Z,1002.45
2017-07-04T05:05:25.979Z,1002.49
2017-07-04T05:06:36.340Z,1002.45
2017-07-04T05:07:46.366Z,1001.94
2017-07-04T05:08:56.444Z,1001.93
2017-07-04T05:10:06.500Z,1001.97
2017-07-04T05:11:15.887Z,1002
2017-07-04T05:12:25.922Z,1001.95
2017-07-04T05:13:35.946Z,1001.92
2017-07-04T05:14:46.293Z,1001.95
2017-07-04T05:15:56.639Z,1001.97
2017-07-04T05:17:06.986Z,1001.96
2017-07-04T05:18:17.017Z,1001.95
2017-07-04T05:19:27.060Z,1001.99
2017-07-04T05:20:37.465Z,1001.99
2017-07-04T05:21:47.817Z,1001.99
2017-07-04T05:22:58.150Z,1001.98
2017-07-04T05:24:08.495Z,1001.99
2017-07-04T05:25:18.844Z,1001.98
2017-07-04T05:26:29.234Z,1001.93
2017-07-04T05:27:39.270Z,1001.89
2017-07-04T05:28:49.619Z,1001.9
2017-07-04T05:29:59.970Z,1001.89
2017-07-04T05:31:10.313Z,1001.93
2017-07-04T05:32:20.678Z,1002.08
2017-07-04T05:33:31.041Z,1002.05
2017-07-04T05:34:41.073Z,1002.06
2017-07-04T05:35:51.176Z,1002.06
2017-07-04T05:37:01.520Z,1002.04
2017-07-04T05:38:11.870Z,1002.02
2017-07-04T05:39:22.213Z,1002.03
2017-07-04T05:40:32.291Z,1002.03
2017-07-04T05:41:42.658Z,1002.04
2017-07-04T05:42:52.364Z,1002.04
2017-07-04T05:44:02.385Z,1002.04
2017-07-04T05:45:12.751Z,1002.08
2017-07-04T05:46:23.109Z,1002.15
2017-07-04T05:47:32.821Z,1002.17
2017-07-04T05:48:43.193Z,1002.24
2017-07-04T05:49:53.558Z,1002.21
2017-07-04T05:51:03.917Z,1002.19
2017-07-04T05:52:14.314Z,1002.2
2017-07-04T05:53:24.360Z,1002.26
2017-07-04T05:54:34.404Z,1002.64
2017-07-04T05:55:44.446Z,1002.31
2017-07-04T05:56:54.475Z,1002.48
2017-07-04T05:58:04.831Z,1002.51
2017-07-04T05:59:14.863Z,1002.63
2017-07-04T06:00:24.590Z,1002.61
2017-07-04T06:01:34.945Z,1002.59
2017-07-04T06:02:45.301Z,1002.49
2017-07-04T06:03:55.386Z,1002.47
2017-07-04T06:05:05.734Z,1002.6
2017-07-04T06:06:14.818Z,1002.59
2017-07-04T06:07:24.532Z,1002.58
2017-07-04T06:08:34.559Z,1002.61
2017-07-04T06:09:44.644Z,1002.77
2017-07-04T06:10:54.700Z,1003.38
2017-07-04T06:12:05.048Z,1003.58
2017-07-04T06:13:15.440Z,1003.36
2017-07-04T06:14:25.817Z,1003.18
2017-07-04T06:15:35.850Z,1002.97
2017-07-04T06:16:45.893Z,1002.88
2017-07-04T06:17:55.931Z,1002.78
2017-07-04T06:19:06.286Z,1002.77
2017-07-04T06:20:16.638Z,1002.93
2017-07-04T06:21:27.047Z,1002.96
2017-07-04T06:22:37.399Z,1002.9
2017-07-04T06:23:46.840Z,1002.83
2017-07-04T06:24:57.200Z,1002.78
2017-07-04T06:26:07.556Z,1002.71
2017-07-04T06:27:17.927Z,1002.74
2017-07-04T06:28:28.283Z,1002.72
2017-07-04T06:29:38.638Z,1002.82
2017-07-04T06:30:48.997Z,1002.83
2017-07-04T06:31:59.363Z,1002.78
2017-07-04T06:33:09.785Z,1002.74
2017-07-04T06:34:19.822Z,1002.75
2017-07-04T06:35:30.178Z,1002.63
2017-07-04T06:36:40.527Z,1002.7
2017-07-04T06:37:50.236Z,1002.69
2017-07-04T06:39:00.325Z,1002.26
2017-07-04T06:40:10.381Z,1002.34
2017-07-04T06:41:20.736Z,1002.54
2017-07-04T06:42:30.778Z,1002.45
2017-07-04T06:43:41.135Z,1002.42
2017-07-04T06:44:51.216Z,1002.39
2017-07-04T06:46:01.259Z,1002.37
2017-07-04T06:47:11.607Z,1002.35
2017-07-04T06:48:21.335Z,1002.31
2017-07-04T06:49:31.691Z,1002.31
2017-07-04T06:50:41.411Z,1002.29
2017-07-04T06:51:51.449Z,1002.27
2017-07-04T06:53:01.176Z,1002.29
2017-07-04T06:54:11.216Z,1002.23
2017-07-04T06:55:21.570Z,1002.29
2017-07-04T06:56:31.649Z,1002.29
2017-07-04T06:57:41.691Z,1002.25
2017-07-04T06:58:51.733Z,1002.25
2017-07-04T07:00:01.785Z,1002.28
2017-07-04T07:01:12.132Z,1002.26
2017-07-04T07:02:22.539Z,1002.24
2017-07-04T07:03:32.565Z,1002.23
2017-07-04T07:04:42.918Z,1002.25
2017-07-04T07:05:53.269Z,1002.21
2017-07-04T07:07:03.627Z,1002.14
2017-07-04T07:08:13.710Z,1002.19
2017-07-04T07:09:23.398Z,1002.21
2017-07-04T07:10:33.755Z,1002.17
2017-07-04T07:11:44.118Z,1002.18
2017-07-04T07:12:54.490Z,1002.14
2017-07-04T07:14:04.528Z,1002.1
2017-07-04T07:15:14.258Z,1002.11
2017-07-04T07:16:23.662Z,1002.12
2017-07-04T07:17:34.023Z,1002.09
2017-07-04T07:18:44.370Z,1002.05
2017-07-04T07:19:54.146Z,1002.09
2017-07-04T07:21:04.488Z,1002.1
2017-07-04T07:22:14.528Z,1002.05
2017-07-04T07:23:24.880Z,1002.05
2017-07-04T07:24:35.482Z,1002.06
2017-07-04T07:25:45.530Z,1002.04
2017-07-04T07:26:55.880Z,1002.05
2017-07-04T07:28:06.221Z,1002.06
2017-07-04T07:29:16.250Z,1002.07
2017-07-04T07:30:26.296Z,1002.05
2017-07-04T07:31:36.333Z,1002.06
2017-07-04T07:32:46.389Z,1002.07
2017-07-04T07:33:56.498Z,1002.01
2017-07-04T07:35:06.854Z,1002.03
2017-07-04T07:36:16.882Z,1002.02
2017-07-04T07:37:27.274Z,1002.02
2017-07-04T07:38:37.630Z,1001.98
2017-07-04T07:39:47.677Z,1001.99
2017-07-04T07:40:57.729Z,1002.01
2017-07-04T07:42:08.089Z,1001.97
2017-07-04T07:43:18.503Z,1002.06
2017-07-04T07:44:28.535Z,1002
2017-07-04T07:45:38.589Z,1002.03
2017-07-04T07:46:48.619Z,1001.97
2017-07-04T07:47:58.968Z,1002.02
2017-07-04T07:49:09.374Z,1002
2017-07-04T07:50:19.736Z,1002.03
2017-07-04T07:51:30.093Z,1001.99
2017-07-04T07:52:40.123Z,1001.96
2017-07-04T07:53:50.167Z,1002.07
2017-07-04T07:55:00.563Z,1002.02
2017-07-04T07:56:10.298Z,1002.06
2017-07-04T07:57:20.647Z,1002.08
2017-07-04T07:58:30.994Z,1002.01
2017-07-04T07:59:41.350Z,1002.04
2017-07-04T08:00:51.734Z,1001.98
2017-07-04T08:02:02.078Z,1002.11
2017-07-04T08:03:12.431Z,1002.14
2017-07-04T08:04:22.777Z,1002.08
2017-07-04T08:05:32.818Z,1002.13
2017-07-04T08:06:43.222Z,1002.16
2017-07-04T08:07:53.259Z,1002.1
2017-07-04T08:09:03.316Z,1002.12
2017-07-04T08:10:13.347Z,1002.07
2017-07-04T08:11:23.388Z,1002.1
2017-07-04T08:12:33.483Z,1002.08
2017-07-04T08:13:43.841Z,1002.06
2017-07-04T08:14:54.199Z,1002.08
2017-07-04T08:16:04.247Z,1002.08
2017-07-04T08:17:14.599Z,1002.11
2017-07-04T08:18:24.989Z,1002.13
2017-07-04T08:19:35.352Z,1002.13
2017-07-04T08:20:45.398Z,1002.09
2017-07-04T08:21:55.447Z,1002.04
2017-07-04T08:23:05.470Z,1002.02
2017-07-04T08:24:15.198Z,1002.07
2017-07-04T08:25:25.240Z,1002.02
2017-07-04T08:26:35.580Z,1002.03
2017-07-04T08:27:45.952Z,1002.15
2017-07-04T08:28:56.355Z,1002.14
2017-07-04T08:30:06.717Z,1002.06
2017-07-04T08:31:17.098Z,1002.14
2017-07-04T08:32:27.465Z,1002.17
2017-07-04T08:33:37.812Z,1002.12
2017-07-04T08:34:47.583Z,1002.1
2017-07-04T08:35:57.629Z,1002.05
2017-07-04T08:37:07.991Z,1002.12
2017-07-04T08:38:18.017Z,1002.12
2017-07-04T08:39:28.367Z,1002.12
2017-07-04T08:40:38.464Z,1002.08
2017-07-04T08:41:48.839Z,1002.13
2017-07-04T08:42:58.553Z,1002.12
2017-07-04T08:44:08.596Z,1002.08
2017-07-04T08:45:18.951Z,1002.16
2017-07-04T08:46:29.056Z,1002.13
2017-07-04T08:47:39.099Z,1002.14
2017-07-04T08:48:49.458Z,1002.07
2017-07-04T08:49:59.522Z,1002.15
2017-07-04T08:51:09.873Z,1002.16
2017-07-04T08:52:20.226Z,1002.22
2017-07-04T08:53:29.631Z,1002.13
2017-07-04T08:54:39.676Z,1002.15
2017-07-04T08:55:50.050Z,1002.12
2017-07-04T08:57:00.417Z,1002.05
2017-07-04T08:58:10.825Z,1002
2017-07-04T08:59:21.181Z,1001.95
2017-07-04T09:00:31.227Z,1002.03
2017-07-04T09:01:41.590Z,1002
2017-07-04T09:02:51.966Z,1002.01
2017-07-04T09:04:02.063Z,1002.03
2017-07-04T09:05:12.417Z,1001.99
2017-07-04T09:06:22.785Z,1001.99
2017-07-04T09:07:33.168Z,1001.96
2017-07-04T09:08:43.529Z,1001.94
2017-07-04T09:09:53.946Z,1001.95
2017-07-04T09:11:03.992Z,1001.97
2017-07-04T09:12:14.021Z,1001.92
2017-07-04T09:13:24.050Z,1001.95
2017-07-04T09:14:34.400Z,1001.85
2017-07-04T09:15:44.825Z,1001.9
2017-07-04T09:16:55.162Z,1001.9
2017-07-04T09:18:05.534Z,1001.77
2017-07-04T09:19:15.570Z,1001.83
2017-07-04T09:20:25.599Z,1001.85
2017-07-04T09:21:36.018Z,1001.83
2017-07-04T09:22:46.366Z,1001.87
2017-07-04T09:23:56.727Z,1001.88
2017-07-04T09:25:06.124Z,1001.87
2017-07-04T09:26:16.157Z,1001.85
2017-07-04T09:27:26.249Z,1001.85
2017-07-04T09:28:35.975Z,1001.79
2017-07-04T09:29:46.352Z,1001.89
2017-07-04T09:30:56.712Z,1001.79
2017-07-04T09:32:07.078Z,1001.82
2017-07-04T09:33:17.130Z,1001.85
2017-07-04T09:34:27.482Z,1001.81
2017-07-04T09:35:37.529Z,1001.85
2017-07-04T09:36:47.893Z,1001.82
2017-07-04T09:37:57.967Z,1001.75
2017-07-04T09:39:08.049Z,1001.82
2017-07-04T09:40:18.408Z,1001.9
2017-07-04T09:41:28.116Z,1001.86
2017-07-04T09:42:38.145Z,1001.86
2017-07-04T09:43:48.495Z,1001.74
2017-07-04T09:44:58.868Z,1001.8
2017-07-04T09:46:08.890Z,1001.75
2017-07-04T09:47:18.921Z,1001.65
2017-07-04T09:48:28.653Z,1001.7
2017-07-04T09:49:38.694Z,1001.66
2017-07-04T09:50:49.106Z,1001.65
2017-07-04T09:51:59.156Z,1001.58
2017-07-04T09:53:09.523Z,1001.63
2017-07-04T09:54:19.875Z,1001.56
2017-07-04T09:55:30.252Z,1001.49
2017-07-04T09:56:40.666Z,1001.53
2017-07-04T09:57:51.018Z,1001.55
2017-07-04T09:59:01.379Z,1001.56
2017-07-04T10:00:11.396Z,1001.56
2017-07-04T10:01:21.439Z,1001.53
2017-07-04T10:02:31.854Z,1001.5
2017-07-04T10:03:42.221Z,1001.52
2017-07-04T10:04:52.609Z,1001.47
2017-07-04T10:06:02.647Z,1001.43
2017-07-04T10:07:13.018Z,1001.44
2017-07-04T10:08:23.424Z,1001.5
2017-07-04T10:09:33.765Z,1001.5
2017-07-04T10:10:43.792Z,1001.61
2017-07-04T10:11:54.149Z,1001.45
2017-07-04T10:13:04.511Z,1001.4
2017-07-04T10:14:14.626Z,1001.36
2017-07-04T10:15:24.665Z,1001.38
2017-07-04T10:16:34.694Z,1001.35
2017-07-04T10:17:45.063Z,1001.45
2017-07-04T10:18:55.409Z,1001.46
2017-07-04T10:20:05.817Z,1001.45
2017-07-04T10:21:16.183Z,1001.44
2017-07-04T10:22:26.220Z,1001.39
2017-07-04T10:23:35.658Z,1001.42
2017-07-04T10:24:46.019Z,1001.41
2017-07-04T10:25:56.443Z,1001.43
2017-07-04T10:27:06.496Z,1001.43
2017-07-04T10:28:16.839Z,1001.44
2017-07-04T10:29:27.210Z,1001.36
2017-07-04T10:30:37.257Z,1001.34
2017-07-04T10:31:47.653Z,1001.41
2017-07-04T10:32:58.007Z,1001.37
2017-07-04T10:34:08.057Z,1001.37
2017-07-04T10:35:18.413Z,1001.35
2017-07-04T10:36:28.777Z,1001.46
2017-07-04T10:37:38.923Z,1001.46
2017-07-04T10:38:49.282Z,1001.4
2017-07-04T10:39:59.662Z,1001.38
2017-07-04T10:41:09.704Z,1001.32
2017-07-04T10:42:20.075Z,1001.32
2017-07-04T10:43:30.491Z,1001.46
2017-07-04T10:44:40.854Z,1001.45
2017-07-04T10:45:51.216Z,1001.33
2017-07-04T10:47:01.567Z,1001.34
2017-07-04T10:48:11.932Z,1001.34
2017-07-04T10:49:21.702Z,1001.3
2017-07-04T10:50:31.753Z,1001.29
2017-07-04T10:51:42.095Z,1001.33
2017-07-04T10:52:52.453Z,1001.39
2017-07-04T10:54:02.804Z,1001.36
2017-07-04T10:55:13.171Z,1001.41
2017-07-04T10:56:22.893Z,1001.26
2017-07-04T10:57:33.227Z,1001.31
2017-07-04T10:58:43.605Z,1001.4
2017-07-04T10:59:53.977Z,1001.29
2017-07-04T11:01:03.753Z,1001.36
2017-07-04T11:02:14.127Z,1001.29
2017-07-04T11:03:24.492Z,1001.25
2017-07-04T11:04:34.850Z,1001.1
2017-07-04T11:05:45.203Z,1001.13
2017-07-04T11:06:55.607Z,1001.17
2017-07-04T11:08:05.645Z,1001.08
2017-07-04T11:09:16.007Z,1001.08
2017-07-04T11:10:26.362Z,1001.07
2017-07-04T11:11:36.711Z,1001.07
2017-07-04T11:12:46.787Z,1000.98
2017-07-04T11:13:57.151Z,1001.07
2017-07-04T11:15:07.519Z,1001.04
2017-07-04T11:16:17.244Z,1001.07
2017-07-04T11:17:27.273Z,1001.14
2017-07-04T11:18:37.645Z,1001.05
2017-07-04T11:19:47.687Z,1001.09
2017-07-04T11:20:58.055Z,1001.08
2017-07-04T11:22:08.408Z,1001.04
2017-07-04T11:23:18.774Z,1001.02
2017-07-04T11:24:29.155Z,1001.04
2017-07-04T11:25:39.502Z,1001.06
2017-07-04T11:26:49.565Z,1001.05
2017-07-04T11:27:59.910Z,1001.05
2017-07-04T11:29:09.957Z,1001.01
2017-07-04T11:30:20.042Z,1001
2017-07-04T11:31:30.384Z,1001
2017-07-04T11:32:40.751Z,1001.06
2017-07-04T11:33:50.468Z,1001.03
2017-07-04T11:35:00.816Z,1000.99
2017-07-04T11:36:11.207Z,1000.9
2017-07-04T11:37:21.259Z,1000.88
2017-07-04T11:38:31.638Z,1000.94
2017-07-04T11:39:41.673Z,1001.05
2017-07-04T11:40:52.030Z,1000.98
2017-07-04T11:42:02.219Z,1000.91
2017-07-04T11:43:12.255Z,1000.97
2017-07-04T11:44:21.969Z,1000.95
2017-07-04T11:45:32.006Z,1000.92
2017-07-04T11:46:42.033Z,1000.96
2017-07-04T11:47:52.100Z,1000.98
2017-07-04T11:49:02.167Z,1000.99
2017-07-04T11:50:12.519Z,1000.99
2017-07-04T11:51:22.862Z,1001.06
2017-07-04T11:52:32.582Z,1000.97
2017-07-04T11:53:42.351Z,1000.93
2017-07-04T11:54:52.711Z,1000.92
2017-07-04T11:56:03.118Z,1000.94
2017-07-04T11:57:13.152Z,1000.9
2017-07-04T11:58:22.881Z,1000.95
2017-07-04T11:59:32.918Z,1001.12
2017-07-04T12:00:43.271Z,1001.11
2017-07-04T12:01:53.306Z,1000.96
2017-07-04T12:03:03.699Z,1001.02
2017-07-04T12:04:14.064Z,1000.98
2017-07-04T12:05:24.470Z,1000.95
2017-07-04T12:06:34.829Z,1000.95
2017-07-04T12:07:45.198Z,1000.92
2017-07-04T12:08:55.617Z,1000.88
2017-07-04T12:10:05.998Z,1000.95
2017-07-04T12:11:16.407Z,1001.03
2017-07-04T12:12:26.779Z,1000.92
2017-07-04T12:13:37.186Z,1001.1
2017-07-04T12:14:47.538Z,1001.09
2017-07-04T12:15:57.919Z,1001.02
2017-07-04T12:17:07.961Z,1001.12
2017-07-04T12:18:18.012Z,1001.11
2017-07-04T12:19:28.370Z,1001.09
2017-07-04T12:20:38.398Z,1001.12
2017-07-04T12:21:48.757Z,1001.12
2017-07-04T12:22:58.857Z,1001.12
2017-07-04T12:24:08.897Z,1001.16
2017-07-04T12:25:18.953Z,1001.24
2017-07-04T12:26:29.305Z,1001.07
2017-07-04T12:27:39.347Z,1001.17
2017-07-04T12:28:49.428Z,1001.15
2017-07-04T12:29:59.480Z,1001.15
2017-07-04T12:31:09.851Z,1001.27
2017-07-04T12:32:19.882Z,1001.22
2017-07-04T12:33:30.230Z,1001.12
2017-07-04T12:34:40.540Z,1001.07
2017-07-04T12:35:50.627Z,1001.02
2017-07-04T12:37:00.676Z,1001.02
2017-07-04T12:38:10.770Z,1000.93
2017-07-04T12:39:21.133Z,1000.96
2017-07-04T12:40:31.192Z,1001.01
2017-07-04T12:41:41.597Z,1000.97
2017-07-04T12:42:51.963Z,1001.03
2017-07-04T12:44:02.331Z,1001.05
2017-07-04T12:45:12.716Z,1001.09
2017-07-04T12:46:22.755Z,1001.05
2017-07-04T12:47:32.565Z,1001.07
2017-07-04T12:48:42.927Z,1001.08
2017-07-04T12:49:53.285Z,1001.04
2017-07-04T12:51:03.635Z,1001.11
2017-07-04T12:52:13.683Z,1001.08
2017-07-04T12:53:23.729Z,1001.07
2017-07-04T12:54:34.084Z,1001.1
2017-07-04T12:55:44.437Z,1001.17
2017-07-04T12:56:54.794Z,1001.09
2017-07-04T12:58:05.142Z,1001.14
2017-07-04T12:59:15.538Z,1001.09
2017-07-04T13:00:25.615Z,1001.1
2017-07-04T13:01:35.977Z,1001.1
2017-07-04T13:02:46.345Z,1001.21
2017-07-04T13:03:56.382Z,1001.12
2017-07-04T13:05:06.106Z,1001.16
2017-07-04T13:06:16.458Z,1001.15
2017-07-04T13:07:26.509Z,1001.16
2017-07-04T13:08:36.861Z,1001.14
2017-07-04T13:09:47.229Z,1001.11
2017-07-04T13:10:57.311Z,1001.11
2017-07-04T13:12:07.668Z,1001.09
2017-07-04T13:13:18.080Z,1001.14
2017-07-04T13:14:28.432Z,1001.19
2017-07-04T13:15:38.809Z,1001.13
2017-07-04T13:16:49.226Z,1001.12
2017-07-04T13:17:59.281Z,1001.12
2017-07-04T13:19:09.654Z,1001.14
2017-07-04T13:20:19.378Z,1001.13
2017-07-04T13:21:29.767Z,1001.13
2017-07-04T13:22:40.189Z,1001.1
2017-07-04T13:23:50.246Z,1001.17
2017-07-04T13:25:00.618Z,1001.13
2017-07-04T13:26:10.965Z,1001.15
2017-07-04T13:27:21.014Z,1001.13
2017-07-04T13:28:31.412Z,1001.16
2017-07-04T13:29:41.434Z,1001.12
2017-07-04T13:30:51.773Z,1001.14
2017-07-04T13:32:02.117Z,1001.12
2017-07-04T13:33:12.472Z,1001.14
2017-07-04T13:34:22.868Z,1001.13
2017-07-04T13:35:33.222Z,1001.13
2017-07-04T13:36:42.950Z,1001.21
2017-07-04T13:37:53.005Z,1001.07
2017-07-04T13:39:03.363Z,1001.11
2017-07-04T13:40:13.798Z,1001.11
2017-07-04T13:41:24.157Z,1001.12
2017-07-04T13:42:34.521Z,1001.11
2017-07-04T13:43:44.583Z,1001.11
2017-07-04T13:44:54.937Z,1001.15
2017-07-04T13:46:05.291Z,1001.11
2017-07-04T13:47:15.339Z,1001.13
2017-07-04T13:48:25.683Z,1001.12
2017-07-04T13:49:36.042Z,1001.15
2017-07-04T13:50:46.410Z,1001.15
2017-07-04T13:51:56.823Z,1001.21
2017-07-04T13:53:06.859Z,1001.22
2017-07-04T13:54:17.218Z,1001.21
2017-07-04T13:55:27.270Z,1001.21
2017-07-04T13:56:37.641Z,1001.2
2017-07-04T13:57:47.738Z,1001.25
2017-07-04T13:58:58.084Z,1001.23
2017-07-04T14:00:08.123Z,1001.22
2017-07-04T14:01:17.833Z,1001.19
2017-07-04T14:02:27.878Z,1001.22
2017-07-04T14:03:37.965Z,1001.2
2017-07-04T14:04:48.315Z,1001.24
2017-07-04T14:05:58.690Z,1001.23
2017-07-04T14:07:09.047Z,1001.22
2017-07-04T14:08:19.418Z,1001.14
2017-07-04T14:09:29.831Z,1001.11
2017-07-04T14:10:40.186Z,1001.17
2017-07-04T14:11:49.904Z,1001.19
2017-07-04T14:13:00.245Z,1001.16
2017-07-04T14:14:09.957Z,1001.15
2017-07-04T14:15:20.322Z,1001.14
2017-07-04T14:16:30.359Z,1001.11
2017-07-04T14:17:40.747Z,1001.12
2017-07-04T14:18:51.100Z,1001.1
2017-07-04T14:20:01.456Z,1001.13
2017-07-04T14:21:11.813Z,1001.16
2017-07-04T14:22:21.868Z,1001.18
2017-07-04T14:23:32.230Z,1001.15
2017-07-04T14:24:42.274Z,1001.15
2017-07-04T14:25:52.309Z,1001.13
2017-07-04T14:27:02.669Z,1001.17
2017-07-04T14:28:12.695Z,1001.14
2017-07-04T14:29:22.729Z,1001.1
2017-07-04T14:30:32.767Z,1001.17
2017-07-04T14:31:43.127Z,1001.16
2017-07-04T14:32:53.230Z,1001.14
2017-07-04T14:34:03.631Z,1001.13
2017-07-04T14:35:13.351Z,1001.14
2017-07-04T14:36:23.706Z,1001.08
2017-07-04T14:37:34.072Z,1001.11
2017-07-04T14:38:44.108Z,1001.12
2017-07-04T14:39:54.158Z,1001.17
2017-07-04T14:41:04.173Z,1001.24